Time;durP1;ratioP1;P1;durP2;ratioP2;P2;SDS_P1;SDS_P2;PMS_P1;PMS_P2;Temp;Humidity;BMP_temperature;BMP_pressure;BME280_temperature;BME280_humidity;BME280_pressure;Samples;Min_cycle;Max_cycle;Signal;HPM_P1;HPM_P2
2023/10/11 00:01:04;;;;;;;11.60;6.68;;;;;;;1.55;nan;99694.53;4900171;29;20042;-72
2023/10/11 00:03:32;;;;;;;8.23;6.55;;;;;;;1.53;nan;99720.00;4898155;29;20411;-71
2023/10/11 00:06:04;;;;;;;10.70;7.63;;;;;;;1.49;nan;99702.63;4899964;29;20051;-71
2023/10/11 00:08:38;;;;;;;9.65;6.35;;;;;;;1.47;nan;99708.84;4898154;29;20059;-73
2023/10/11 00:11:03;;;;;;;10.82;7.75;;;;;;;1.45;nan;99709.75;4882996;29;20510;-67
2023/10/11 00:13:36;;;;;;;9.77;6.38;;;;;;;1.47;nan;99719.34;4899801;29;20047;-72
2023/10/11 00:16:07;;;;;;;8.85;5.88;;;;;;;1.51;nan;99716.56;4899989;29;20043;-69
2023/10/11 00:18:37;;;;;;;10.43;5.93;;;;;;;1.52;nan;99723.53;4896288;29;20052;-69
2023/10/11 00:21:10;;;;;;;10.85;6.28;;;;;;;1.56;nan;99719.91;4880741;29;20060;-70
2023/10/11 00:23:39;;;;;;;7.95;6.38;;;;;;;1.59;nan;99730.28;4896254;29;20054;-69
2023/10/11 00:26:06;;;;;;;8.07;5.80;;;;;;;1.60;nan;99705.72;4877776;29;20055;-70
2023/10/11 00:28:33;;;;;;;10.30;6.95;;;;;;;1.59;nan;99724.16;4893904;29;20054;-70
2023/10/11 00:31:01;;;;;;;11.75;6.65;;;;;;;1.53;nan;99740.16;4898437;29;20055;-70
2023/10/11 00:33:28;;;;;;;8.75;6.35;;;;;;;1.47;nan;99729.88;4899023;29;20067;-72
2023/10/11 00:35:55;;;;;;;9.70;6.25;;;;;;;1.40;nan;99735.31;4880542;29;20533;-71
2023/10/11 00:39:33;;;;;;;10.48;7.22;;;;;;;1.36;82.26;99744.19;5055764;27;20162;-68
2023/10/11 00:41:59;;;;;;;8.07;5.45;;;;;;;1.31;82.16;99751.38;5044878;28;20048;-68
2023/10/11 00:44:25;;;;;;;10.82;6.68;;;;;;;1.27;82.33;99781.25;5049690;28;20040;-67
2023/10/11 00:46:58;;;;;;;9.50;5.97;;;;;;;1.29;82.78;99747.06;5076619;28;20040;-68
2023/10/11 00:49:34;;;;;;;8.57;5.80;;;;;;;1.30;82.58;99785.56;5076168;28;20031;-66
2023/10/11 00:52:04;;;;;;;8.50;6.38;;;;;;;1.32;82.77;99741.72;5075233;28;20047;-67
2023/10/11 00:54:30;;;;;;;9.60;5.63;;;;;;;1.33;83.43;99743.44;5051891;28;20047;-69
2023/10/11 00:56:56;;;;;;;8.02;5.53;;;;;;;1.32;82.58;99746.97;5043569;28;20058;-68
2023/10/11 00:59:23;;;;;;;12.13;5.20;;;;;;;1.32;82.73;99746.97;5053797;28;20043;-68
2023/10/11 01:01:51;;;;;;;7.28;4.85;;;;;;;1.32;82.91;99752.22;5037618;28;20055;-70
2023/10/11 01:04:18;;;;;;;11.20;4.90;;;;;;;1.28;83.08;99751.47;5063782;28;20035;-70
2023/10/11 01:06:47;;;;;;;6.22;4.45;;;;;;;1.24;82.23;99749.00;5057861;28;20043;-70
2023/10/11 01:09:17;;;;;;;5.38;4.10;;;;;;;1.18;82.78;99759.69;5058269;28;20039;-68
2023/10/11 01:11:43;;;;;;;9.60;5.15;;;;;;;1.08;82.42;99796.72;5039927;28;20070;-67
2023/10/11 01:14:11;;;;;;;8.43;4.50;;;;;;;1.00;82.58;99761.13;5073202;28;20036;-66
2023/10/11 01:16:37;;;;;;;5.85;4.55;;;;;;;;;;5056570;28;20055;-67
2023/10/11 01:19:07;;;;;;;9.77;4.28;;;;;;;0.78;nan;99778.44;5059085;28;20504;-67
2023/10/11 01:21:34;;;;;;;19.75;5.25;;;;;;;0.69;nan;99783.00;5038921;28;20051;-67
2023/10/11 01:23:59;;;;;;;11.57;4.97;;;;;;;;;;5065045;28;20047;-66
2023/10/11 01:26:25;;;;;;;10.18;4.90;;;;;;;0.50;nan;99792.31;5053307;28;20062;-66
2023/10/11 01:28:56;;;;;;;9.30;4.80;;;;;;;0.43;nan;99795.19;5071291;28;20050;-67
2023/10/11 01:31:22;;;;;;;9.95;5.00;;;;;;;0.36;nan;99797.09;5052768;28;20047;-68
2023/10/11 01:33:52;;;;;;;8.32;4.60;;;;;;;0.27;nan;99795.59;5055907;28;20040;-67
2023/10/11 01:36:21;;;;;;;14.80;5.65;;;;;;;0.20;nan;99828.13;5074215;28;20058;-67
2023/10/11 01:38:47;;;;;;;13.68;6.95;;;;;;;0.15;nan;99806.41;5074823;28;20064;-66
2023/10/11 01:41:21;;;;;;;6.45;4.22;;;;;;;0.11;nan;99819.66;5054895;28;20039;-66
2023/10/11 01:43:49;;;;;;;8.73;4.32;;;;;;;0.05;nan;99815.41;5076169;28;20039;-70
2023/10/11 01:46:35;;;;;;;9.65;3.80;;;;;;;;;;5056212;28;20046;-71
2023/10/11 01:49:05;;;;;;;7.18;4.05;;;;;;;-0.04;nan;99813.91;5038672;28;20040;-71
2023/10/11 01:51:30;;;;;;;7.90;3.58;;;;;;;-0.09;nan;99812.28;5060047;28;20783;-71
2023/10/11 01:54:00;;;;;;;7.07;3.25;;;;;;;-0.11;nan;99819.31;5042260;28;20861;-71
2023/10/11 01:56:26;;;;;;;5.43;2.95;;;;;;;-0.15;nan;99822.94;5048085;28;20040;-71
2023/10/11 01:58:52;;;;;;;5.13;2.97;;;;;;;;;;5044037;28;20055;-71
2023/10/11 02:01:21;;;;;;;4.43;3.17;;;;;;;-0.21;nan;99823.94;5040722;28;20051;-70
2023/10/11 02:03:54;;;;;;;8.32;3.33;;;;;;;-0.22;nan;99821.34;5025679;28;20234;-70
2023/10/11 02:06:21;;;;;;;4.43;3.17;;;;;;;-0.25;nan;99821.44;5035853;28;20051;-71
2023/10/11 02:08:47;;;;;;;3.75;2.70;;;;;;;-0.27;nan;99818.00;5079446;27;20043;-69
2023/10/11 02:11:15;;;;;;;5.47;2.42;;;;;;;-0.31;nan;99827.69;5039076;28;20047;-69
2023/10/11 02:13:42;;;;;;;4.40;2.42;;;;;;;-0.35;nan;99861.88;5050271;28;20841;-70
2023/10/11 02:16:11;;;;;;;7.82;3.05;;;;;;;-0.37;nan;99820.84;5049990;28;20063;-71
2023/10/11 02:18:38;;;;;;;5.95;3.05;;;;;;;-0.38;nan;99832.22;5060053;28;20405;-70
2023/10/11 02:21:06;;;;;;;4.50;3.00;;;;;;;-0.37;nan;99827.84;5063152;28;20050;-70
2023/10/11 02:23:42;;;;;;;3.38;2.33;;;;;;;-0.39;nan;99825.25;5059872;28;20589;-70
2023/10/11 02:26:14;;;;;;;3.47;2.40;;;;;;;-0.40;nan;99839.25;5023224;28;20058;-71
2023/10/11 02:28:40;;;;;;;3.75;2.80;;;;;;;-0.45;nan;99846.34;5045360;28;20031;-69
2023/10/11 02:31:08;;;;;;;5.85;3.67;;;;;;;;;;5068238;28;20055;-70
2023/10/11 02:33:34;;;;;;;4.32;3.08;;;;;;;-0.49;nan;99841.22;5059887;28;20048;-72
2023/10/11 02:36:08;;;;;;;3.83;2.60;;;;;;;-0.50;nan;99850.84;5060129;28;20090;-71
2023/10/11 02:38:41;;;;;;;4.15;2.78;;;;;;;-0.53;nan;99878.84;5027515;28;20047;-72
2023/10/11 02:41:07;;;;;;;5.43;3.28;;;;;;;-0.53;nan;99853.53;5048448;28;20044;-71
2023/10/11 02:43:33;;;;;;;5.75;3.67;;;;;;;;;;5027075;28;20063;-70
2023/10/11 02:45:59;;;;;;;7.03;3.15;;;;;;;-0.56;nan;99885.00;5060124;27;20058;-70
2023/10/11 02:48:25;;;;;;;4.57;3.22;;;;;;;-0.57;nan;99898.16;5079487;27;20046;-71
2023/10/11 02:50:54;;;;;;;7.68;3.40;;;;;;;-0.59;nan;99885.09;5037148;28;20455;-72
2023/10/11 02:53:22;;;;;;;5.88;3.42;;;;;;;-0.59;nan;99863.28;5018314;28;20509;-72
2023/10/11 02:55:57;;;;;;;4.55;3.20;;;;;;;-0.60;nan;99867.66;5077071;27;20047;-71
2023/10/11 02:58:22;;;;;;;3.75;2.88;;;;;;;;;;5045000;27;20043;-71
2023/10/11 03:00:47;;;;;;;6.68;3.60;;;;;;;-0.61;nan;99870.31;5053783;28;20047;-71
2023/10/11 03:03:15;;;;;;;4.40;3.55;;;;;;;;;;4944196;28;20041;-71
2023/10/11 03:05:42;;;;;;;5.28;3.28;;;;;;;-0.63;nan;99893.91;5058706;28;20382;-71
2023/10/11 03:08:13;;;;;;;7.50;3.97;;;;;;;-0.65;nan;99866.91;5026536;28;20512;-68
2023/10/11 03:10:45;;;;;;;9.48;3.40;;;;;;;-0.64;nan;99881.72;5037469;28;20052;-68
2023/10/11 03:13:31;;;;;;;5.70;3.33;;;;;;;-0.66;nan;99878.25;5037711;28;20051;-69
2023/10/11 03:15:58;;;;;;;5.07;3.28;;;;;;;-0.69;nan;99883.59;5022149;28;20047;-70
2023/10/11 03:18:32;;;;;;;4.18;3.53;;;;;;;-0.71;nan;99880.13;5021543;28;20055;-71
2023/10/11 03:21:19;;;;;;;7.13;3.47;;;;;;;-0.67;nan;99905.34;5072866;28;20048;-70
2023/10/11 03:23:47;;;;;;;4.30;2.88;;;;;;;-0.72;nan;99878.41;5058058;28;20405;-70
2023/10/11 03:29:03;;;;;;;5.45;3.20;;;;;;;-0.68;nan;99892.31;5039816;28;20040;-70
2023/10/11 03:31:34;;;;;;;4.38;2.63;;;;;;;-0.69;nan;99882.72;5056405;28;20052;-70
2023/10/11 03:34:14;;;;;;;6.70;3.50;;;;;;;-0.74;nan;99886.28;5023278;28;20409;-71
2023/10/11 13:00:31;;;;;;;3.47;1.83;;;;;;;7.70;nan;99567.50;5320485;23;20067;-79
2023/10/11 13:02:59;;;;;;;6.82;1.55;;;;;;;7.74;nan;99558.44;4847849;29;20056;-78
2023/10/11 13:05:32;;;;;;;5.95;2.25;;;;;;;7.60;45.96;99557.47;4892120;27;21330;-82
2023/10/11 13:07:57;;;;;;;1.98;1.77;;;;;;;7.72;45.00;99555.88;5003354;28;20039;-76
2023/10/11 13:10:23;;;;;;;2.97;2.10;;;;;;;7.67;45.58;99546.50;5075256;28;20059;-77
2023/10/11 13:12:54;;;;;;;4.13;2.10;;;;;;;7.69;45.26;99555.19;5057377;28;20043;-78
2023/10/11 13:15:24;;;;;;;3.50;1.90;;;;;;;7.62;45.94;99534.34;5074427;28;20046;-80
2023/10/11 13:17:49;;;;;;;2.78;2.00;;;;;;;7.59;45.59;99529.22;5077468;28;20043;-81
2023/10/11 13:20:20;;;;;;;5.72;1.63;;;;;;;7.44;46.78;99529.31;5112810;27;20039;-81
2023/10/11 13:22:48;;;;;;;1.65;1.48;;;;;;;7.54;46.01;99539.28;5094660;28;20051;-80
2023/10/11 13:25:24;;;;;;;2.45;1.73;;;;;;;7.36;46.21;99519.16;5076186;28;20047;-80
2023/10/11 13:27:57;;;;;;;3.15;1.73;;;;;;;7.32;46.73;99530.06;5094729;28;20058;-79
2023/10/11 13:30:23;;;;;;;1.98;1.67;;;;;;;7.21;46.72;99525.41;5076737;28;20043;-81
2023/10/11 13:32:50;;;;;;;6.53;2.83;;;;;;;7.15;47.78;99512.50;5076461;28;20070;-78
2023/10/11 13:35:16;;;;;;;3.75;2.65;;;;;;;7.09;47.64;99529.63;5078062;28;20854;-80
2023/10/11 13:37:46;;;;;;;3.83;1.77;;;;;;;7.04;47.54;99504.31;5094398;28;20043;-80
2023/10/11 13:40:14;;;;;;;3.67;2.05;;;;;;;6.85;48.64;99504.56;5076017;28;20048;-81
2023/10/11 13:42:42;;;;;;;2.60;1.90;;;;;;;6.80;49.17;99496.00;5074878;28;20048;-78
2023/10/11 13:45:09;;;;;;;4.53;2.40;;;;;;;6.80;49.71;99496.00;5057957;28;20054;-80
2023/10/11 13:47:36;;;;;;;3.35;2.15;;;;;;;6.81;49.65;99503.88;5098197;27;20044;-80
2023/10/11 13:50:08;;;;;;;2.67;1.98;;;;;;;6.76;50.20;99505.09;5088813;28;20046;-79
2023/10/11 13:52:36;;;;;;;4.50;2.17;;;;;;;6.72;50.53;99501.75;5037506;28;20058;-80
2023/10/11 13:55:08;;;;;;;2.85;2.20;;;;;;;6.67;50.13;99487.91;5072845;28;20047;-79
2023/10/11 13:57:33;;;;;;;2.45;2.13;;;;;;;6.74;50.31;99494.59;5054631;28;20052;-78
2023/10/11 14:00:41;;;;;;;3.53;1.98;;;;;;;6.78;49.90;99497.88;5071495;28;20059;-79
2023/10/11 14:02:45;;;;;;;5.20;2.55;;;;;;;6.78;49.32;99501.41;5073180;28;20055;-73
2023/10/11 14:05:13;;;;;;;4.72;2.20;;;;;;;6.92;49.67;99490.84;5056019;28;20417;-72
2023/10/11 14:07:52;;;;;;;4.28;2.20;;;;;;;6.66;50.26;99494.16;5056259;28;20055;-73
2023/10/11 14:10:28;;;;;;;3.13;1.92;;;;;;;6.64;50.69;99485.47;5091927;28;20393;-74
2023/10/11 14:13:07;;;;;;;3.13;1.88;;;;;;;6.69;51.18;99478.09;5092224;28;20058;-73
2023/10/11 14:15:35;;;;;;;3.13;2.28;;;;;;;6.64;50.72;99479.31;5067381;28;20047;-74
2023/10/11 14:18:03;;;;;;;3.08;2.53;;;;;;;6.66;50.69;99474.78;5077872;28;20055;-74
2023/10/11 14:20:30;;;;;;;3.42;2.30;;;;;;;6.66;50.38;99477.44;5059433;28;20039;-73
2023/10/11 14:23:04;;;;;;;2.50;1.75;;;;;;;6.69;50.29;99456.91;5078113;28;20043;-75
2023/10/11 14:25:31;;;;;;;4.43;2.10;;;;;;;6.71;50.52;99454.16;5077566;28;20063;-73
2023/10/11 14:27:56;;;;;;;4.07;2.05;;;;;;;6.68;51.11;99449.03;5042981;28;20062;-73
2023/10/11 14:30:23;;;;;;;3.40;1.92;;;;;;;6.63;50.90;99457.28;5043792;28;20520;-78
2023/10/11 14:32:50;;;;;;;3.67;2.20;;;;;;;6.59;51.28;99444.28;5061860;28;20079;-75
2023/10/11 14:35:17;;;;;;;4.22;2.13;;;;;;;6.48;51.90;99431.66;5044027;28;20111;-72
2023/10/11 14:37:43;;;;;;;3.63;1.88;;;;;;;6.49;52.49;99436.03;5043016;28;20063;-73
2023/10/11 14:40:14;;;;;;;4.95;1.95;;;;;;;6.45;52.69;99448.59;5078752;28;20042;-73
2023/10/11 14:42:43;;;;;;;3.55;2.58;;;;;;;6.48;52.98;99437.81;5070064;28;20027;-78
2023/10/11 14:45:12;;;;;;;8.30;2.80;;;;;;;6.48;52.68;99424.56;5058738;28;20062;-79
2023/10/11 14:47:39;;;;;;;6.47;2.33;;;;;;;6.50;52.31;99457.13;5089197;28;20512;-78
2023/10/11 14:50:11;;;;;;;6.80;2.70;;;;;;;6.45;52.62;99426.53;5034584;28;20039;-79
2023/10/11 14:52:40;;;;;;;9.27;2.72;;;;;;;6.49;51.91;99450.13;5069653;28;20109;-78
2023/10/11 14:55:09;;;;;;;2.97;1.95;;;;;;;6.45;52.30;99414.16;5082724;28;20061;-79
2023/10/11 14:57:35;;;;;;;6.15;2.58;;;;;;;6.47;51.97;99440.56;5084552;28;20054;-79
2023/10/11 15:00:00;;;;;;;3.30;1.77;;;;;;;6.37;52.66;99402.31;5085548;28;20036;-79
2023/10/11 15:02:26;;;;;;;5.15;1.80;;;;;;;6.50;52.00;99424.50;5080505;28;20117;-78
2023/10/11 15:04:52;;;;;;;4.28;2.30;;;;;;;6.26;53.19;99425.91;5077051;28;20055;-73
2023/10/11 15:07:18;;;;;;;4.30;2.80;;;;;;;6.34;52.54;99381.31;5059598;28;20501;-73
2023/10/11 15:09:43;;;;;;;6.07;2.25;;;;;;;6.31;53.12;99386.81;5021527;28;20048;-73
2023/10/11 15:12:09;;;;;;;2.55;2.17;;;;;;;6.32;53.05;99372.63;5058563;28;20401;-76
2023/10/11 15:14:34;;;;;;;4.00;2.17;;;;;;;6.31;52.90;99376.22;5057310;28;20401;-73
2023/10/11 15:16:59;;;;;;;7.78;2.88;;;;;;;6.22;53.07;99382.88;5042212;28;20054;-72
2023/10/11 15:19:25;;;;;;;2.95;2.20;;;;;;;6.25;53.20;99392.44;5025804;28;20047;-74
2023/10/11 15:21:50;;;;;;;1.52;1.25;;;;;;;6.38;52.60;99373.09;5044915;28;20501;-75
2023/10/11 15:24:16;;;;;;;16.92;2.72;;;;;;;6.27;52.92;99356.16;5058367;28;20040;-73
2023/10/11 15:26:43;;;;;;;4.07;2.72;;;;;;;6.29;52.98;99354.25;5076546;28;20054;-73
2023/10/11 15:29:08;;;;;;;7.93;2.75;;;;;;;6.13;53.62;99341.06;5040955;28;20051;-74
2023/10/11 15:31:34;;;;;;;3.75;2.38;;;;;;;6.03;54.07;99334.59;5077061;28;20051;-73
2023/10/11 15:34:12;;;;;;;1.83;1.73;;;;;;;6.14;54.01;99327.75;5058775;28;20551;-73
2023/10/11 15:36:40;;;;;;;3.20;2.17;;;;;;;6.10;53.80;99325.34;5030147;28;20058;-73
2023/10/11 15:39:10;;;;;;;3.92;2.80;;;;;;;6.08;53.54;99322.81;5076877;28;20040;-73
2023/10/11 15:41:36;;;;;;;2.22;1.92;;;;;;;6.23;52.67;99314.91;5041798;28;20051;-74
2023/10/11 15:44:02;;;;;;;5.28;2.42;;;;;;;5.96;53.88;99327.97;5077242;28;20055;-72
2023/10/11 15:46:27;;;;;;;4.10;2.53;;;;;;;6.03;53.13;99335.44;5086919;28;20044;-73
2023/10/11 15:48:54;;;;;;;4.57;2.45;;;;;;;6.01;53.71;99310.88;5053010;28;20520;-76
2023/10/11 15:51:21;;;;;;;7.55;3.25;;;;;;;6.02;54.12;99312.56;5047493;28;20059;-74
2023/10/11 15:53:46;;;;;;;3.63;2.40;;;;;;;5.85;54.99;99294.16;5057398;28;20047;-68
2023/10/11 15:56:14;;;;;;;7.25;3.30;;;;;;;5.91;54.40;99303.56;5075703;28;20051;-70
2023/10/11 15:58:39;;;;;;;3.47;2.15;;;;;;;6.00;53.75;99303.88;5023710;28;20058;-68
2023/10/11 16:01:06;;;;;;;3.15;2.15;;;;;;;6.08;53.43;99279.63;5057793;28;20113;-71
2023/10/11 16:03:39;;;;;;;4.43;2.40;;;;;;;6.07;53.72;99294.66;5057515;28;20063;-70
2023/10/11 16:06:09;;;;;;;4.55;2.58;;;;;;;5.91;54.57;99283.25;5075875;28;20043;-71
2023/10/11 16:08:35;;;;;;;5.28;2.92;;;;;;;5.93;54.07;99278.72;5075875;28;20745;-69
2023/10/11 16:11:15;;;;;;;7.28;2.95;;;;;;;5.97;53.49;99264.38;5075610;28;20052;-68
2023/10/11 16:13:42;;;;;;;4.18;2.97;;;;;;;6.05;53.16;99258.63;5075706;28;20043;-70
2023/10/11 16:16:09;;;;;;;28.98;3.72;;;;;;;5.81;54.05;99282.91;5075493;28;20054;-70
2023/10/11 16:18:40;;;;;;;7.35;3.63;;;;;;;5.87;54.08;99276.38;5056645;28;20044;-68
2023/10/11 16:21:07;;;;;;;4.00;2.33;;;;;;;5.90;53.97;99265.66;5075211;28;20054;-70
2023/10/11 16:23:33;;;;;;;6.82;2.90;;;;;;;5.92;54.25;99306.13;5075068;28;20039;-69
2023/10/11 16:26:00;;;;;;;5.50;3.22;;;;;;;6.00;53.28;99276.56;5056979;28;20043;-67
2023/10/11 16:28:28;;;;;;;6.30;2.53;;;;;;;5.92;53.81;99273.50;5056292;28;20048;-69
2023/10/11 16:30:55;;;;;;;6.72;2.22;;;;;;;5.91;53.81;99283.25;5057446;28;20147;-71
2023/10/11 16:33:23;;;;;;;6.97;2.63;;;;;;;5.93;53.16;99257.56;5046958;28;20048;-67
2023/10/11 16:35:51;;;;;;;4.60;2.17;;;;;;;5.94;53.41;99267.19;5054600;28;20035;-67
2023/10/11 16:38:17;;;;;;;4.88;2.83;;;;;;;5.95;53.27;99258.31;5052784;28;20054;-72
2023/10/11 16:40:44;;;;;;;3.85;2.70;;;;;;;5.87;53.06;99259.69;5071475;28;20047;-70
2023/10/11 16:43:11;;;;;;;4.10;2.53;;;;;;;5.92;53.18;99247.06;5066955;28;20046;-70
2023/10/11 16:45:37;;;;;;;3.45;2.13;;;;;;;6.01;51.80;99241.22;5039047;28;20055;-70
2023/10/11 16:48:04;;;;;;;3.60;2.63;;;;;;;5.94;51.92;99242.53;5051773;28;20043;-70
2023/10/11 16:50:33;;;;;;;3.72;2.30;;;;;;;5.92;52.31;99226.75;5075057;28;20047;-70
2023/10/11 16:53:04;;;;;;;4.97;2.67;;;;;;;5.81;52.23;99231.78;5057124;28;20050;-71
2023/10/11 16:55:30;;;;;;;3.95;2.63;;;;;;;5.89;51.87;99216.34;5056521;28;20405;-70
2023/10/11 16:57:56;;;;;;;3.80;1.95;;;;;;;5.84;52.10;99298.59;5041162;28;20528;-73
2023/10/11 17:00:22;;;;;;;5.35;3.13;;;;;;;5.80;52.29;99200.97;5058287;28;20047;-75
2023/10/11 17:02:48;;;;;;;5.20;3.10;;;;;;;5.94;51.74;99213.44;5058221;28;20051;-76
2023/10/11 17:05:13;;;;;;;4.70;2.65;;;;;;;5.95;51.69;99189.53;5075836;28;20409;-75
2023/10/11 17:07:44;;;;;;;2.38;1.90;;;;;;;6.06;51.10;99192.38;4983939;28;20044;-72
2023/10/11 17:10:10;;;;;;;5.07;3.00;;;;;;;6.06;50.90;99202.97;5073440;28;20031;-72
2023/10/11 17:12:40;;;;;;;4.82;2.80;;;;;;;6.08;50.14;99198.44;5075617;28;20055;-71
2023/10/11 17:15:10;;;;;;;2.55;2.35;;;;;;;6.29;50.01;99195.44;5076191;28;20035;-72
2023/10/11 17:17:37;;;;;;;5.05;2.47;;;;;;;6.18;49.49;99183.72;5091423;28;20047;-71
2023/10/11 17:20:05;;;;;;;3.92;2.33;;;;;;;6.11;50.35;99179.72;5075118;28;20401;-68
2023/10/11 17:22:34;;;;;;;5.00;3.05;;;;;;;6.12;50.54;99188.50;5075596;28;20047;-71
2023/10/11 17:25:00;;;;;;;2.70;2.17;;;;;;;6.00;50.74;99182.16;5076521;28;20051;-69
2023/10/11 17:27:28;;;;;;;5.63;2.83;;;;;;;5.97;50.69;99192.09;5047897;28;20047;-73
2023/10/11 17:29:54;;;;;;;5.82;3.08;;;;;;;5.99;50.02;99147.84;5076601;28;20039;-75
2023/10/11 17:32:19;;;;;;;2.65;2.25;;;;;;;5.92;50.10;99147.38;5058323;28;20054;-75
2023/10/11 17:34:45;;;;;;;5.07;2.42;;;;;;;5.99;50.46;99155.78;5057440;28;20043;-78
2023/10/11 17:37:10;;;;;;;3.72;2.28;;;;;;;5.95;50.49;99184.25;5073049;28;20060;-75
2023/10/11 17:39:36;;;;;;;3.75;2.90;;;;;;;6.03;50.44;99150.22;5054595;28;20433;-75
2023/10/11 17:42:02;;;;;;;6.65;3.53;;;;;;;6.01;50.64;99146.81;5040551;28;20048;-74
2023/10/11 17:44:28;;;;;;;6.63;2.95;;;;;;;6.18;49.47;99122.84;5075869;28;20492;-74
2023/10/11 17:46:54;;;;;;;5.88;2.85;;;;;;;6.10;50.58;99125.09;5056135;28;20050;-72
2023/10/11 17:49:19;;;;;;;5.25;3.28;;;;;;;6.16;49.80;99119.44;5057254;28;20036;-74
2023/10/11 17:51:45;;;;;;;4.20;2.65;;;;;;;6.13;49.69;99126.69;5059745;28;20048;-75
2023/10/11 17:54:12;;;;;;;4.28;2.72;;;;;;;6.10;49.88;99114.50;5078831;28;20047;-77
2023/10/11 17:56:38;;;;;;;6.03;3.30;;;;;;;;;;5079149;28;20564;-77
2023/10/11 17:59:04;;;;;;;5.05;3.35;;;;;;;5.92;nan;99104.19;5060079;28;20046;-75
2023/10/11 18:01:29;;;;;;;6.10;2.85;;;;;;;5.89;nan;99104.38;5078737;27;20043;-74
2023/10/11 18:03:55;;;;;;;9.95;4.10;;;;;;;5.91;nan;99135.09;5077227;28;20062;-72
2023/10/11 18:06:21;;;;;;;5.40;3.28;;;;;;;6.19;nan;99098.06;5078130;27;20413;-73
2023/10/11 18:08:48;;;;;;;4.38;2.92;;;;;;;6.12;nan;99070.25;5078484;27;20047;-72
2023/10/11 18:11:14;;;;;;;4.35;3.03;;;;;;;6.19;nan;99084.84;5080365;27;20046;-74
2023/10/11 18:13:40;;;;;;;3.80;2.55;;;;;;;6.10;nan;99103.91;5080067;28;20046;-73
2023/10/11 18:16:07;;;;;;;6.80;3.47;;;;;;;6.10;nan;99071.31;5059892;28;20035;-74
2023/10/11 18:18:35;;;;;;;3.95;2.45;;;;;;;6.09;nan;99075.78;5075497;28;20477;-71
2023/10/11 18:21:00;;;;;;;6.57;3.10;;;;;;;6.16;nan;99087.66;5077451;28;20133;-74
2023/10/11 18:23:27;;;;;;;4.25;3.50;;;;;;;6.16;nan;99063.84;5058946;28;20051;-73
2023/10/11 18:25:54;;;;;;;5.15;3.20;;;;;;;6.13;nan;99037.56;5077200;28;20054;-75
2023/10/11 18:28:20;;;;;;;5.05;3.35;;;;;;;6.12;nan;99050.88;5076966;28;20493;-78
2023/10/11 18:30:49;;;;;;;2.47;2.28;;;;;;;6.25;nan;99057.13;5077118;28;20047;-79
2023/10/11 18:33:15;;;;;;;4.50;2.83;;;;;;;6.15;nan;99042.78;5078386;28;20036;-76
2023/10/11 18:36:11;;;;;;;3.28;2.75;;;;;;;6.24;50.11;99036.88;5067010;28;20212;-77
2023/10/11 18:38:37;;;;;;;4.70;2.92;;;;;;;6.22;50.67;99049.38;5055151;28;20051;-77
2023/10/11 18:41:05;;;;;;;4.53;3.10;;;;;;;6.21;50.26;99029.13;5047113;28;20043;-77
2023/10/11 18:43:31;;;;;;;4.40;3.25;;;;;;;6.20;50.76;99024.81;5076135;28;20492;-75
2023/10/11 18:45:57;;;;;;;4.60;2.88;;;;;;;6.12;51.02;99014.69;5089772;28;20035;-78
2023/10/11 18:48:24;;;;;;;3.75;2.75;;;;;;;6.11;50.68;99020.94;5058721;28;20078;-77
2023/10/11 18:50:49;;;;;;;4.10;2.85;;;;;;;6.15;50.41;99011.88;5075454;28;20054;-78
2023/10/11 18:53:17;;;;;;;7.20;3.00;;;;;;;6.26;50.58;99003.25;5075496;28;20050;-79
2023/10/11 18:55:43;;;;;;;4.45;3.22;;;;;;;6.21;50.68;99010.59;5093065;28;20027;-76
2023/10/11 18:58:10;;;;;;;5.03;3.28;;;;;;;6.20;51.00;98998.34;5076324;28;20058;-78
2023/10/11 19:00:37;;;;;;;8.75;2.97;;;;;;;6.18;51.50;99027.56;5042814;28;20043;-78
2023/10/11 19:03:07;;;;;;;4.80;2.85;;;;;;;6.12;51.65;98996.16;5076795;28;20043;-80
2023/10/11 19:05:32;;;;;;;3.65;2.33;;;;;;;6.34;51.87;98978.91;5063519;28;20027;-78
2023/10/11 19:08:01;;;;;;;4.63;2.58;;;;;;;6.22;52.69;98999.06;5094834;28;20043;-78
2023/10/11 19:10:30;;;;;;;5.18;3.05;;;;;;;6.06;53.35;98980.69;5054880;28;20058;-79
2023/10/11 19:12:57;;;;;;;5.78;2.60;;;;;;;6.10;53.42;98998.06;5073298;28;20413;-77
2023/10/11 19:15:25;;;;;;;4.57;2.60;;;;;;;6.19;53.54;98986.91;5072783;28;20489;-77
2023/10/11 19:17:51;;;;;;;4.47;2.75;;;;;;;6.02;54.71;98960.66;5068134;28;20051;-79
2023/10/11 19:20:18;;;;;;;4.43;2.88;;;;;;;5.90;54.52;98963.22;5093421;28;20043;-76
2023/10/11 19:22:46;;;;;;;3.72;2.90;;;;;;;5.87;54.72;98958.13;5074506;28;20520;-78
2023/10/11 19:25:14;;;;;;;5.13;2.95;;;;;;;5.86;55.69;98953.78;5093135;28;20042;-79
2023/10/11 19:27:41;;;;;;;3.63;2.85;;;;;;;5.93;55.50;98953.31;5093296;27;20070;-77
2023/10/11 19:30:08;;;;;;;4.43;2.92;;;;;;;5.99;55.51;98950.25;5092629;28;20039;-78
2023/10/11 19:32:37;;;;;;;6.13;2.85;;;;;;;6.08;54.98;98962.94;5092004;28;20443;-70
2023/10/11 19:35:11;;;;;;;4.35;3.20;;;;;;;6.01;55.17;98934.28;5072819;28;20055;-73
2023/10/11 19:37:41;;;;;;;7.03;3.23;;;;;;;6.13;54.73;98939.66;5061472;28;20059;-71
2023/10/11 19:40:09;;;;;;;11.18;3.22;;;;;;;6.14;55.04;98929.91;5090550;27;20039;-75
2023/10/11 19:42:36;;;;;;;5.22;3.22;;;;;;;6.32;53.45;98959.66;5074104;28;20054;-79
2023/10/11 19:45:09;;;;;;;8.02;3.17;;;;;;;6.21;54.51;98936.50;5073684;28;20047;-77
2023/10/11 19:47:42;;;;;;;5.03;2.87;;;;;;;6.28;53.81;98958.16;5060362;28;20048;-78
2023/10/11 19:50:08;;;;;;;2.67;2.45;;;;;;;6.29;54.26;98907.75;5061150;28;20047;-75
2023/10/11 19:52:36;;;;;;;5.53;3.17;;;;;;;6.27;54.01;98919.38;5061250;28;20039;-77
2023/10/11 19:55:02;;;;;;;5.75;3.13;;;;;;;6.27;54.08;98919.38;5079092;28;20039;-78
2023/10/11 19:57:29;;;;;;;5.30;3.47;;;;;;;6.31;53.69;98915.59;5044685;28;20062;-77
2023/10/11 19:59:57;;;;;;;4.97;2.78;;;;;;;6.25;54.24;98916.84;5043774;28;20044;-77
2023/10/11 20:02:24;;;;;;;5.88;3.17;;;;;;;6.24;55.24;98911.63;4998053;28;20048;-75
2023/10/11 20:04:49;;;;;;;5.57;2.80;;;;;;;6.00;56.87;98917.56;5036612;28;20036;-78
2023/10/11 20:07:17;;;;;;;5.82;3.17;;;;;;;6.07;56.92;98907.47;5071143;28;20067;-76
2023/10/11 20:09:42;;;;;;;2.90;2.25;;;;;;;6.09;57.71;98927.59;5077610;28;20066;-76
2023/10/11 20:12:07;;;;;;;3.78;2.53;;;;;;;6.16;57.94;98896.28;5078111;28;20054;-77
2023/10/11 20:14:33;;;;;;;5.25;3.42;;;;;;;5.86;58.66;98899.09;5059146;28;20039;-74
2023/10/11 20:17:05;;;;;;;4.32;3.08;;;;;;;5.73;60.54;98898.16;5059248;28;20043;-76
2023/10/11 20:19:33;;;;;;;5.00;2.95;;;;;;;5.62;61.10;98890.06;5059265;28;20047;-79
2023/10/11 20:22:02;;;;;;;4.72;2.97;;;;;;;5.51;62.88;98888.09;5059834;28;20040;-74
2023/10/11 20:24:27;;;;;;;4.25;2.90;;;;;;;5.51;63.08;98874.03;5059511;28;20036;-72
2023/10/11 20:26:52;;;;;;;6.55;3.17;;;;;;;5.36;64.49;98858.19;5060127;28;20051;-75
2023/10/11 20:29:19;;;;;;;5.88;3.33;;;;;;;5.36;66.47;98862.63;5079280;28;20109;-76
2023/10/11 20:31:44;;;;;;;3.45;2.75;;;;;;;5.34;66.87;98886.50;5060402;28;20058;-75
2023/10/11 20:34:10;;;;;;;3.25;2.58;;;;;;;5.28;68.27;98838.47;5043196;28;20509;-72
2023/10/11 20:36:35;;;;;;;6.10;3.50;;;;;;;5.32;67.99;98830.22;5040665;28;20517;-73
2023/10/11 20:39:08;;;;;;;4.80;3.35;;;;;;;5.24;68.56;98873.94;5058563;28;20039;-73
2023/10/11 20:41:36;;;;;;;7.18;3.55;;;;;;;5.05;69.98;98816.97;5067140;28;20035;-74
2023/10/11 20:44:02;;;;;;;4.00;2.88;;;;;;;4.90;71.68;98814.41;5070290;28;20035;-76
2023/10/11 20:46:27;;;;;;;8.07;3.63;;;;;;;4.79;73.43;98819.50;5086111;28;20449;-76
2023/10/11 20:48:54;;;;;;;4.30;3.15;;;;;;;4.69;75.48;98809.50;5071220;28;20035;-74
2023/10/11 20:51:19;;;;;;;6.40;3.40;;;;;;;4.75;75.60;98811.78;5089595;28;20039;-76
2023/10/11 20:53:45;;;;;;;4.68;3.08;;;;;;;4.73;76.90;98805.75;5088852;28;20054;-77
2023/10/11 20:56:12;;;;;;;4.15;2.75;;;;;;;4.77;76.43;98802.91;5070367;28;20050;-78
2023/10/11 20:58:44;;;;;;;8.00;3.60;;;;;;;4.78;76.40;98810.75;5062523;28;20047;-75
2023/10/11 21:01:12;;;;;;;4.50;3.13;;;;;;;4.92;75.64;98791.41;5066087;28;20043;-77
2023/10/11 21:03:38;;;;;;;6.60;3.20;;;;;;;4.79;76.22;98780.75;5059911;28;20040;-78
2023/10/11 21:06:09;;;;;;;4.75;3.08;;;;;;;4.70;77.37;98762.84;5060077;28;20050;-77
2023/10/11 21:08:35;;;;;;;5.18;2.65;;;;;;;4.72;77.62;98772.38;5059812;28;20050;-77
2023/10/11 21:11:01;;;;;;;7.50;4.95;;;;;;;4.44;80.09;98764.44;5077866;28;20043;-76
2023/10/11 21:13:30;;;;;;;4.20;3.10;;;;;;;4.54;80.48;98773.47;5077657;28;20046;-77
2023/10/11 21:16:02;;;;;;;4.78;2.80;;;;;;;4.57;81.02;98757.47;5041066;28;20056;-78
2023/10/11 21:18:28;;;;;;;6.28;4.25;;;;;;;4.57;80.71;98789.13;5078103;28;20121;-78
2023/10/11 21:20:53;;;;;;;5.43;3.95;;;;;;;4.41;82.44;98756.69;5024819;28;20051;-78